Terminal Aerodrome Forecast
Issued by NWS Midland/Odessa, TX

Home | Current Version | Previous Version | Text Only | Print | Product List | Glossary On
Versions: 1 2 3 4 5 6 7 8 9 10 11 12 13 14 15 16 17 18 19 20 21 22 23
000
FTUS44 KMAF 182300
TAFMAF
TAF
KMAF 182324Z 1900/1924 08004KT P6SM OVC150
     FM190800 05006KT 3SM -DZ BR OVC008
      TEMPO 1912/1916 3/4SM -DZ BR OVC004=

USA.gov is the U.S. government's official web portal to all federal, state and local government web resources and services.